Time;durP1;ratioP1;P1;durP2;ratioP2;P2;SDS_P1;SDS_P2;PMS_P1;PMS_P2;Temp;Humidity;BMP_temperature;BMP_pressure;BME280_temperature;BME280_humidity;BME280_pressure;Samples;Min_cycle;Max_cycle;Signal;HPM_P1;HPM_P2
2022/06/08 00:02:14;;;;;;;31.35;18.23;;;;;;;14.42;100.00;100982.50;4953502;29;20039;-64
2022/06/08 00:04:39;;;;;;;30.50;18.38;;;;;;;14.43;100.00;100981.44;4953234;29;20031;-64
2022/06/08 00:07:05;;;;;;;27.80;15.93;;;;;;;14.42;100.00;100980.63;4953730;29;20042;-64
2022/06/08 00:09:30;;;;;;;29.02;16.08;;;;;;;14.40;100.00;100984.56;4953081;29;20074;-64
2022/06/08 00:11:56;;;;;;;28.67;16.77;;;;;;;14.38;100.00;100981.28;4953323;29;20398;-64
2022/06/08 00:14:22;;;;;;;30.45;17.63;;;;;;;14.38;100.00;100981.28;4953126;29;20042;-64
2022/06/08 00:16:48;;;;;;;30.85;18.10;;;;;;;14.37;100.00;100974.28;4953149;29;20032;-65
2022/06/08 00:19:13;;;;;;;29.73;17.35;;;;;;;14.35;100.00;100976.34;4953184;29;20410;-64
2022/06/08 00:21:38;;;;;;;30.92;17.10;;;;;;;14.32;100.00;100972.25;4953288;29;20043;-64
2022/06/08 00:24:04;;;;;;;31.45;18.08;;;;;;;14.31;100.00;100964.44;4953066;29;20515;-64
2022/06/08 00:26:30;;;;;;;31.92;19.08;;;;;;;14.29;100.00;100964.63;4952869;29;20094;-64
2022/06/08 00:28:55;;;;;;;29.88;17.98;;;;;;;14.30;100.00;100970.81;4952805;29;20125;-64
2022/06/08 00:31:21;;;;;;;30.08;19.13;;;;;;;14.30;100.00;100968.13;4952715;28;20123;-64
2022/06/08 00:33:48;;;;;;;30.23;17.05;;;;;;;14.28;100.00;100963.00;4952882;29;20390;-64
2022/06/08 00:36:13;;;;;;;30.50;18.10;;;;;;;14.26;100.00;100954.34;4952850;29;20035;-65
2022/06/08 00:38:39;;;;;;;30.50;17.88;;;;;;;14.27;100.00;100952.47;4952907;29;20037;-64
2022/06/08 00:41:38;;;;;;;30.95;19.35;;;;;;;14.25;100.00;100955.38;4952923;29;20050;-64
2022/06/08 00:44:18;;;;;;;30.83;17.92;;;;;;;14.19;100.00;100946.34;4952641;29;20023;-64
2022/06/08 00:46:45;;;;;;;29.55;17.13;;;;;;;14.23;100.00;100952.13;4952490;29;20098;-64
2022/06/08 00:49:32;;;;;;;33.38;19.88;;;;;;;14.23;100.00;100944.88;4952633;29;20548;-64
2022/06/08 00:52:00;;;;;;;29.60;18.15;;;;;;;14.20;100.00;100933.75;4952217;29;20051;-64
2022/06/08 00:54:31;;;;;;;31.20;18.25;;;;;;;14.21;100.00;100938.09;4952452;29;20497;-64
2022/06/08 00:57:23;;;;;;;32.25;18.77;;;;;;;14.20;100.00;100934.59;4952474;29;20034;-64
2022/06/08 00:59:54;;;;;;;30.98;19.23;;;;;;;14.20;100.00;100936.44;4943714;29;20050;-64
2022/06/08 01:02:20;;;;;;;32.58;18.05;;;;;;;14.18;100.00;100930.47;4952478;29;20079;-64
2022/06/08 01:04:45;;;;;;;29.25;18.90;;;;;;;14.18;100.00;100941.22;4941753;29;21029;-64
2022/06/08 01:07:18;;;;;;;32.10;19.27;;;;;;;14.15;100.00;100929.06;4952246;29;20090;-64
2022/06/08 01:09:44;;;;;;;28.73;17.80;;;;;;;14.15;100.00;100930.94;4952229;29;20487;-64
2022/06/08 01:12:17;;;;;;;31.20;20.70;;;;;;;14.16;100.00;100936.06;4952237;29;20153;-64
2022/06/08 01:14:43;;;;;;;28.73;18.00;;;;;;;14.15;100.00;100930.94;4952140;29;20034;-64
2022/06/08 01:17:14;;;;;;;30.33;18.58;;;;;;;14.13;100.00;100922.25;4952052;29;20031;-65
2022/06/08 01:19:44;;;;;;;32.13;18.80;;;;;;;14.12;100.00;100920.59;4952135;29;20034;-65
2022/06/08 01:22:11;;;;;;;31.95;20.00;;;;;;;14.09;100.00;100921.03;4952235;29;20045;-64
2022/06/08 01:24:37;;;;;;;32.60;20.02;;;;;;;14.05;100.00;100909.13;4951803;29;20028;-64
2022/06/08 01:27:03;;;;;;;30.45;18.40;;;;;;;14.03;100.00;100907.47;4951974;29;20371;-65
2022/06/08 01:29:38;;;;;;;34.20;19.50;;;;;;;14.03;100.00;100909.34;4951910;29;20112;-64
2022/06/08 01:32:12;;;;;;;29.33;18.77;;;;;;;14.01;100.00;100893.44;4951816;29;20070;-65
2022/06/08 01:34:56;;;;;;;33.55;20.10;;;;;;;13.97;100.00;100884.22;4951729;29;20093;-64
2022/06/08 01:37:35;;;;;;;32.70;20.42;;;;;;;13.95;100.00;100888.97;4951754;29;20041;-64
2022/06/08 01:40:45;;;;;;;34.72;21.65;;;;;;;13.93;100.00;100879.50;4951843;29;20031;-64
2022/06/08 01:43:25;;;;;;;31.42;18.75;;;;;;;13.88;100.00;100879.34;4921450;29;20054;-64
2022/06/08 01:46:00;;;;;;;30.92;18.02;;;;;;;13.86;100.00;100884.09;4951716;29;20062;-64
2022/06/08 01:48:49;;;;;;;31.92;17.15;;;;;;;13.85;100.00;100874.41;4939203;29;20031;-64
2022/06/08 01:51:51;;;;;;;31.75;18.98;;;;;;;13.82;100.00;100871.13;4936536;29;20075;-64
2022/06/08 01:54:38;;;;;;;32.63;20.30;;;;;;;13.80;100.00;100872.38;4951900;29;20364;-64
2022/06/08 01:57:22;;;;;;;30.25;18.73;;;;;;;13.80;100.00;100859.78;4951858;29;20023;-64
2022/06/08 02:00:00;;;;;;;32.88;19.13;;;;;;;13.77;100.00;100854.06;4951922;29;20470;-64
2022/06/08 02:02:34;;;;;;;26.95;15.77;;;;;;;13.78;100.00;100861.03;4951798;29;20035;-65
2022/06/08 02:05:15;;;;;;;29.92;17.92;;;;;;;13.75;100.00;100859.66;4951690;28;20102;-64
2022/06/08 02:08:13;;;;;;;31.10;18.77;;;;;;;13.74;100.00;100849.13;4951853;29;20042;-64
2022/06/08 02:10:48;;;;;;;29.92;17.58;;;;;;;13.71;100.00;100850.38;4934479;29;20035;-64
2022/06/08 02:13:37;;;;;;;29.33;18.65;;;;;;;13.71;100.00;100841.53;4951574;29;20027;-64
2022/06/08 02:16:15;;;;;;;31.75;16.50;;;;;;;13.70;100.00;100838.03;4951765;28;20053;-64
2022/06/08 02:18:49;;;;;;;28.25;17.42;;;;;;;13.67;100.00;100830.41;4951589;29;20062;-64
2022/06/08 02:21:21;;;;;;;30.25;17.52;;;;;;;13.65;100.00;100826.28;4951518;29;20062;-64
2022/06/08 02:23:52;;;;;;;28.73;16.42;;;;;;;13.64;100.00;100824.66;4951470;29;20058;-64
2022/06/08 02:26:26;;;;;;;29.02;16.77;;;;;;;13.63;100.00;100823.03;4951410;29;20501;-64
2022/06/08 02:29:11;;;;;;;27.30;15.80;;;;;;;13.62;100.00;100805.28;4951435;29;20035;-64
2022/06/08 02:31:52;;;;;;;24.15;14.20;;;;;;;13.58;100.00;100796.88;4951386;28;20034;-64
2022/06/08 02:34:35;;;;;;;24.27;14.57;;;;;;;13.59;100.00;100799.31;4951325;28;20106;-64
2022/06/08 02:37:19;;;;;;;25.27;15.30;;;;;;;13.58;100.00;100803.06;4951388;29;20471;-64
2022/06/08 02:39:50;;;;;;;24.65;14.75;;;;;;;13.56;100.00;100801.63;4951419;28;20035;-64
2022/06/08 02:42:23;;;;;;;27.30;15.07;;;;;;;13.55;100.00;100808.03;4951159;29;20177;-64
2022/06/08 02:44:56;;;;;;;26.30;13.90;;;;;;;13.51;100.00;100804.97;4951156;29;20534;-65
2022/06/08 02:47:31;;;;;;;24.55;13.85;;;;;;;13.46;100.00;100794.06;4951273;29;20386;-64
2022/06/08 02:50:05;;;;;;;27.33;16.13;;;;;;;13.45;100.00;100787.09;4951141;29;20106;-64
2022/06/08 02:52:30;;;;;;;25.35;14.93;;;;;;;13.42;100.00;100798.25;4951133;29;20058;-64
2022/06/08 02:54:57;;;;;;;27.90;15.30;;;;;;;13.38;100.00;100776.41;4952735;28;20035;-64
2022/06/08 02:57:51;;;;;;;24.45;15.15;;;;;;;13.42;100.00;100792.88;4954989;29;20046;-64
2022/06/08 03:00:30;;;;;;;25.35;14.00;;;;;;;13.39;100.00;100790.63;4955046;29;20027;-64
2022/06/08 03:03:07;;;;;;;25.08;15.32;;;;;;;13.39;100.00;100787.97;4955012;29;20474;-64
2022/06/08 03:06:00;;;;;;;25.50;15.95;;;;;;;13.36;100.00;100791.88;4954669;29;20138;-64
2022/06/08 03:08:30;;;;;;;24.38;14.57;;;;;;;13.35;100.00;100784.88;4954926;28;20090;-64
2022/06/08 03:10:59;;;;;;;26.80;16.45;;;;;;;13.32;100.00;100779.94;4954871;28;20090;-64
2022/06/08 03:13:48;;;;;;;25.83;15.63;;;;;;;13.30;100.00;100775.84;4954914;28;20098;-64
2022/06/08 03:16:26;;;;;;;27.33;15.35;;;;;;;13.30;100.00;100773.97;4954675;28;20027;-64
2022/06/08 03:18:52;;;;;;;26.48;13.20;;;;;;;13.30;100.00;100773.97;4954721;28;20122;-64
2022/06/08 03:21:17;;;;;;;25.42;14.60;;;;;;;13.30;100.00;100776.66;4954257;29;20586;-64
2022/06/08 03:23:43;;;;;;;23.10;12.35;;;;;;;13.29;100.00;100769.69;4954662;29;20083;-64
2022/06/08 03:26:08;;;;;;;25.90;14.48;;;;;;;13.26;100.00;100764.75;4954450;29;20475;-64
2022/06/08 03:28:33;;;;;;;26.15;14.90;;;;;;;13.24;100.00;100771.34;4954396;29;20035;-64
2022/06/08 03:30:59;;;;;;;24.45;13.10;;;;;;;13.23;100.00;100769.66;4954660;29;20059;-64
2022/06/08 03:33:24;;;;;;;22.77;13.45;;;;;;;13.15;100.00;100754.69;4954413;29;20549;-64
2022/06/08 03:35:50;;;;;;;29.90;12.52;;;;;;;13.20;100.00;100773.59;4954374;29;20387;-64
2022/06/08 03:38:16;;;;;;;22.15;12.77;;;;;;;13.21;100.00;100771.78;4954197;29;20398;-64
2022/06/08 03:40:41;;;;;;;23.70;12.85;;;;;;;13.23;100.00;100772.34;4954232;29;20050;-64
2022/06/08 03:43:06;;;;;;;20.10;10.75;;;;;;;13.24;100.00;100769.47;4954279;29;20035;-64
2022/06/08 03:45:39;;;;;;;22.33;11.07;;;;;;;13.27;100.00;100770.94;4954181;29;20054;-64
2022/06/08 03:48:06;;;;;;;21.85;11.27;;;;;;;13.30;100.00;100773.16;4954275;29;20109;-64
2022/06/08 03:50:32;;;;;;;21.85;11.13;;;;;;;13.32;100.00;100769.25;4953952;28;20642;-64
2022/06/08 03:53:02;;;;;;;20.15;11.10;;;;;;;13.37;100.00;100776.63;4953869;29;20070;-64
2022/06/08 03:55:30;;;;;;;22.50;11.80;;;;;;;13.40;100.00;100772.69;4954036;29;20027;-64
2022/06/08 03:57:57;;;;;;;20.55;9.32;;;;;;;13.48;100.00;100780.47;4953972;29;20031;-64
2022/06/08 04:00:24;;;;;;;19.73;11.63;;;;;;;13.52;100.00;100771.78;4954016;29;20039;-64
2022/06/08 04:02:50;;;;;;;17.80;8.45;;;;;;;13.64;100.00;100781.78;4953893;29;20074;-65
2022/06/08 04:05:16;;;;;;;17.35;9.10;;;;;;;13.69;100.00;100785.44;4953321;28;20723;-64
2022/06/08 04:07:42;;;;;;;17.98;9.70;;;;;;;13.72;100.00;100778.81;4953722;29;20031;-64
2022/06/08 04:10:09;;;;;;;16.13;8.27;;;;;;;13.77;100.00;100779.00;4953551;28;20042;-64
2022/06/08 04:12:35;;;;;;;18.10;9.48;;;;;;;13.78;100.00;100772.56;4953468;28;20371;-64
2022/06/08 04:15:00;;;;;;;16.45;8.90;;;;;;;13.79;100.00;100772.38;4953677;29;20034;-64
2022/06/08 04:17:25;;;;;;;16.02;8.65;;;;;;;13.81;100.00;100777.53;4953710;29;20031;-64
2022/06/08 04:19:51;;;;;;;15.75;8.30;;;;;;;13.84;100.00;100770.91;4953586;29;20386;-64
2022/06/08 04:22:19;;;;;;;15.63;7.43;;;;;;;13.86;100.00;100776.84;4953531;28;20035;-64
2022/06/08 04:24:45;;;;;;;17.98;8.65;;;;;;;13.87;100.00;100765.91;4953291;29;20458;-64
2022/06/08 04:27:11;;;;;;;16.83;7.43;;;;;;;13.90;100.00;100761.97;4952918;29;20023;-64
2022/06/08 04:29:37;;;;;;;16.55;7.85;;;;;;;13.90;100.00;100762.78;4953492;29;20041;-64
2022/06/08 04:32:06;;;;;;;17.05;8.88;;;;;;;13.90;100.00;100756.59;4953434;29;20039;-64
2022/06/08 04:34:31;;;;;;;16.10;8.20;;;;;;;13.90;100.00;100761.97;4953284;29;20023;-64
2022/06/08 04:36:56;;;;;;;18.13;9.80;;;;;;;13.89;100.00;100754.97;4953269;29;20045;-64
2022/06/08 04:39:22;;;;;;;15.77;7.85;;;;;;;13.91;100.00;100766.28;4953303;29;20047;-64
2022/06/08 04:41:47;;;;;;;15.40;8.45;;;;;;;13.93;100.00;100767.69;4952876;29;20039;-64
2022/06/08 04:44:13;;;;;;;15.25;7.63;;;;;;;13.94;100.00;100765.88;4953133;29;20039;-64
2022/06/08 04:46:38;;;;;;;14.05;7.32;;;;;;;13.97;100.00;100762.75;4952949;29;20450;-64
2022/06/08 04:49:04;;;;;;;14.23;7.53;;;;;;;14.01;100.00;100753.19;4952841;29;20038;-64
2022/06/08 04:51:29;;;;;;;11.30;6.85;;;;;;;14.03;100.00;100751.13;4952228;29;20142;-64
2022/06/08 04:53:55;;;;;;;13.32;8.25;;;;;;;14.07;100.00;100743.44;4935246;29;20058;-64
2022/06/08 04:56:21;;;;;;;14.38;8.18;;;;;;;14.11;100.00;100741.97;4952310;29;20031;-64
2022/06/08 04:58:46;;;;;;;14.82;8.85;;;;;;;14.16;100.00;100734.06;4951855;29;20122;-64
2022/06/08 05:01:11;;;;;;;15.63;7.00;;;;;;;14.19;100.00;100731.75;4952007;29;20035;-64
2022/06/08 05:03:37;;;;;;;13.82;8.05;;;;;;;14.27;100.00;100732.50;4952284;29;20043;-64
2022/06/08 05:06:02;;;;;;;15.68;8.60;;;;;;;14.31;100.00;100731.03;4952153;29;20038;-64
2022/06/08 05:08:28;;;;;;;15.57;8.48;;;;;;;14.34;100.00;100717.16;4952075;29;20042;-64
2022/06/08 05:10:55;;;;;;;14.02;7.75;;;;;;;14.40;100.00;100730.47;4949426;29;20035;-64
2022/06/08 05:13:22;;;;;;;16.27;8.23;;;;;;;14.42;100.00;100732.94;4952212;29;20079;-64
2022/06/08 05:15:49;;;;;;;17.23;8.88;;;;;;;14.47;100.00;100728.53;4952151;29;20031;-64
2022/06/08 05:18:18;;;;;;;16.27;9.68;;;;;;;14.57;100.00;100724.53;4951220;28;20035;-64
2022/06/08 05:20:44;;;;;;;16.30;7.72;;;;;;;14.59;100.00;100717.06;4951995;29;20043;-64
2022/06/08 05:23:19;;;;;;;15.07;8.70;;;;;;;14.62;100.00;100714.75;4951940;29;20031;-64
2022/06/08 05:25:44;;;;;;;14.82;8.02;;;;;;;14.65;100.00;100710.81;4951826;29;20055;-68
2022/06/08 05:28:11;;;;;;;16.88;8.93;;;;;;;14.67;100.00;100697.97;4951869;29;20062;-68
2022/06/08 05:30:37;;;;;;;16.15;9.00;;;;;;;14.64;100.00;100696.53;4951504;29;20060;-68
2022/06/08 05:33:04;;;;;;;18.70;9.50;;;;;;;14.70;100.00;100705.56;4951422;29;20461;-68
2022/06/08 05:35:30;;;;;;;17.52;9.20;;;;;;;14.72;100.00;100700.78;4933032;29;20031;-68
2022/06/08 05:37:56;;;;;;;16.83;8.75;;;;;;;14.77;100.00;100694.72;4933018;29;20359;-68
2022/06/08 05:40:22;;;;;;;15.15;8.68;;;;;;;14.79;100.00;100688.09;4933344;29;20045;-68
2022/06/08 05:42:48;;;;;;;14.35;8.35;;;;;;;14.79;100.00;100688.09;4933303;29;20126;-69
2022/06/08 05:45:21;;;;;;;13.25;8.43;;;;;;;14.84;100.00;100682.84;4933238;29;20475;-68
2022/06/08 05:47:47;;;;;;;14.88;8.25;;;;;;;14.86;100.00;100677.25;4933358;29;20058;-68
2022/06/08 05:50:13;;;;;;;12.65;7.57;;;;;;;14.84;100.00;100671.31;4932950;29;20064;-68
2022/06/08 05:52:38;;;;;;;13.70;8.20;;;;;;;14.89;100.00;100674.94;4932615;29;20094;-68
2022/06/08 05:55:04;;;;;;;17.40;8.50;;;;;;;14.90;100.00;100671.19;4933216;29;20106;-68
2022/06/08 05:57:30;;;;;;;15.10;8.52;;;;;;;14.93;100.00;100669.91;4932777;29;20044;-68
2022/06/08 05:59:55;;;;;;;14.27;8.27;;;;;;;14.98;100.00;100663.84;4932886;29;20545;-68
2022/06/08 06:02:20;;;;;;;14.00;8.40;;;;;;;15.04;100.00;100661.06;4932984;29;20412;-68
2022/06/08 06:04:46;;;;;;;15.70;7.95;;;;;;;15.08;100.00;100664.13;4932939;29;20043;-68
2022/06/08 06:07:12;;;;;;;14.48;7.97;;;;;;;15.09;100.00;100657.69;4932886;29;20365;-68
2022/06/08 06:09:39;;;;;;;13.50;8.20;;;;;;;15.10;100.00;100652.09;4933080;29;20119;-68
2022/06/08 06:12:06;;;;;;;12.15;7.38;;;;;;;15.15;100.00;100650.59;4932785;29;20043;-68
2022/06/08 06:14:32;;;;;;;17.30;8.13;;;;;;;15.17;100.00;100652.00;4932493;29;20043;-68
2022/06/08 06:16:58;;;;;;;14.27;7.20;;;;;;;15.26;100.00;100658.66;4932755;29;20016;-68
2022/06/08 06:19:24;;;;;;;17.75;7.78;;;;;;;15.34;100.00;100666.34;4932606;29;20472;-68
2022/06/08 06:21:50;;;;;;;12.80;6.93;;;;;;;15.39;100.00;100656.78;4932570;29;20041;-68
2022/06/08 06:24:16;;;;;;;12.63;7.25;;;;;;;15.41;100.00;100654.69;4933170;29;20111;-68
2022/06/08 06:26:41;;;;;;;12.13;7.18;;;;;;;15.41;100.00;100644.75;4950686;29;20035;-68
2022/06/08 06:29:07;;;;;;;13.10;7.95;;;;;;;15.43;100.00;100648.03;4950770;28;20030;-68
2022/06/08 06:31:52;;;;;;;12.38;7.65;;;;;;;15.44;100.00;100643.47;4933089;29;20035;-68
2022/06/08 06:34:22;;;;;;;11.32;6.88;;;;;;;15.50;100.00;100645.22;4950797;29;20058;-68
2022/06/08 06:36:48;;;;;;;13.07;6.65;;;;;;;15.53;100.00;100642.88;4950671;29;20038;-68
2022/06/08 06:39:14;;;;;;;9.77;5.95;;;;;;;15.57;100.00;100648.59;4950623;29;20039;-69
2022/06/08 06:41:39;;;;;;;13.52;6.57;;;;;;;15.57;100.00;100660.19;4950851;29;20023;-68
2022/06/08 06:44:05;;;;;;;10.15;6.05;;;;;;;15.58;100.00;100658.28;4950804;29;20033;-70
2022/06/08 06:46:31;;;;;;;10.32;6.90;;;;;;;15.57;100.00;100665.56;4950475;29;20038;-69
2022/06/08 06:48:56;;;;;;;9.68;5.60;;;;;;;15.57;100.00;100659.38;4950742;29;20137;-68
2022/06/08 06:51:21;;;;;;;9.85;6.03;;;;;;;15.59;100.00;100662.63;4950670;29;20534;-69
2022/06/08 06:53:47;;;;;;;10.13;5.90;;;;;;;15.64;100.00;100661.91;4950295;29;20035;-69
2022/06/08 06:56:12;;;;;;;10.13;5.60;;;;;;;15.69;100.00;100659.38;4950693;29;20027;-68
2022/06/08 06:58:38;;;;;;;11.27;6.03;;;;;;;15.77;100.00;100664.38;4950777;29;20056;-68
2022/06/08 07:01:04;;;;;;;11.00;6.45;;;;;;;15.89;100.00;100661.69;4950526;29;20059;-69
2022/06/08 07:03:30;;;;;;;9.23;5.50;;;;;;;16.00;100.00;100658.97;4950710;29;20063;-69
2022/06/08 07:05:56;;;;;;;9.23;5.65;;;;;;;16.11;99.75;100662.72;4950452;29;20475;-68
2022/06/08 07:08:22;;;;;;;11.43;5.30;;;;;;;16.21;98.96;100659.41;4950446;29;20511;-68
2022/06/08 07:11:32;;;;;;;8.50;6.20;;;;;;;16.29;99.68;100652.81;4944181;29;20151;-68
2022/06/08 07:13:33;;;;;;;7.50;4.90;;;;;;;16.35;98.75;100650.00;4932172;29;20058;-68
2022/06/08 07:15:59;;;;;;;9.30;5.40;;;;;;;16.45;98.22;100641.28;4931319;29;20024;-68
2022/06/08 07:18:24;;;;;;;10.32;5.63;;;;;;;16.49;97.55;100639.75;4932207;29;20395;-68
2022/06/08 07:20:50;;;;;;;9.90;4.68;;;;;;;16.50;97.61;100627.91;4934670;29;20060;-72
2022/06/08 07:23:15;;;;;;;7.30;4.80;;;;;;;16.48;97.32;100631.91;4938835;29;20036;-74
2022/06/08 07:25:40;;;;;;;6.80;4.90;;;;;;;16.46;97.97;100625.97;4938767;29;20064;-69
2022/06/08 07:28:06;;;;;;;9.35;5.10;;;;;;;16.61;97.71;100627.06;4938018;29;20399;-70
2022/06/08 07:30:31;;;;;;;10.82;5.35;;;;;;;16.73;98.51;100624.28;4913386;29;20043;-65
2022/06/08 07:32:57;;;;;;;7.55;4.72;;;;;;;16.78;95.71;100628.97;4931907;29;20075;-65
2022/06/08 07:35:22;;;;;;;7.45;4.57;;;;;;;16.83;95.94;100624.50;4931953;29;20047;-67
2022/06/08 07:37:48;;;;;;;6.90;4.28;;;;;;;16.95;96.53;100623.59;4931990;29;20606;-68
2022/06/08 07:40:13;;;;;;;8.52;4.88;;;;;;;17.08;96.91;100617.88;4931828;29;20036;-68
2022/06/08 07:42:39;;;;;;;7.38;5.03;;;;;;;17.15;95.90;100623.94;4935245;29;20032;-68
2022/06/08 07:45:06;;;;;;;9.18;4.57;;;;;;;17.12;93.04;100626.31;4935373;29;20498;-68
2022/06/08 07:47:31;;;;;;;7.22;3.97;;;;;;;17.12;94.80;100621.72;4935561;29;20043;-68
2022/06/08 07:49:57;;;;;;;6.25;4.38;;;;;;;17.12;93.82;100624.44;4935142;29;20160;-68
2022/06/08 07:52:22;;;;;;;6.57;3.95;;;;;;;17.23;93.65;100618.13;4947589;29;20063;-68
2022/06/08 07:54:49;;;;;;;7.90;3.95;;;;;;;17.43;92.65;100616.81;4954009;29;20027;-68
2022/06/08 07:57:27;;;;;;;6.25;4.03;;;;;;;17.49;92.27;100630.09;4953756;28;20027;-68
2022/06/08 07:59:53;;;;;;;5.90;3.90;;;;;;;17.55;91.64;100625.59;4954074;29;20059;-68
2022/06/08 08:02:18;;;;;;;7.10;3.78;;;;;;;17.63;90.85;100627.03;4953678;29;20070;-68
2022/06/08 08:04:44;;;;;;;6.82;3.47;;;;;;;17.68;91.49;100627.13;4953906;29;20063;-68
2022/06/08 08:07:10;;;;;;;5.90;3.90;;;;;;;17.68;90.76;100619.88;4953744;29;20027;-68
2022/06/08 08:09:37;;;;;;;5.13;3.28;;;;;;;17.77;90.64;100631.03;4953687;29;20082;-68
2022/06/08 08:12:02;;;;;;;7.60;3.45;;;;;;;17.82;89.44;100627.63;4953749;29;20027;-68
2022/06/08 08:14:29;;;;;;;6.50;4.13;;;;;;;17.83;88.76;100627.34;4953898;29;20045;-68
2022/06/08 08:16:54;;;;;;;8.00;3.42;;;;;;;17.81;89.13;100624.06;4953734;29;20031;-68
2022/06/08 08:19:24;;;;;;;8.88;3.60;;;;;;;17.82;89.36;100628.44;4952428;29;20987;-68
2022/06/08 08:21:50;;;;;;;5.90;3.10;;;;;;;17.90;88.92;100622.59;4953524;29;20035;-68
2022/06/08 08:24:16;;;;;;;5.80;2.63;;;;;;;18.00;87.75;100618.38;4953428;29;20041;-68
2022/06/08 08:26:47;;;;;;;7.63;3.47;;;;;;;18.18;87.12;100618.03;4953383;29;20039;-68
2022/06/08 08:29:13;;;;;;;6.00;2.90;;;;;;;18.44;87.70;100616.44;4953366;29;20027;-68
2022/06/08 08:31:39;;;;;;;7.82;3.15;;;;;;;18.63;86.01;100614.22;4953427;28;20046;-69
2022/06/08 08:34:05;;;;;;;9.30;4.10;;;;;;;18.78;84.27;100616.25;4953298;29;20046;-72
2022/06/08 08:36:30;;;;;;;3.08;2.50;;;;;;;18.81;85.47;100621.13;4953141;29;20375;-71
2022/06/08 08:38:58;;;;;;;8.52;3.60;;;;;;;18.74;83.88;100615.91;4953062;29;20039;-70
2022/06/08 08:44:35;;;;;;;6.55;2.63;;;;;;;18.62;86.77;100610.66;4953537;29;20053;-70
2022/06/08 08:47:28;;;;;;;6.72;2.90;;;;;;;18.48;86.64;100609.47;4953073;29;20078;-70
2022/06/08 08:50:00;;;;;;;8.32;3.38;;;;;;;18.38;84.72;100617.47;4953120;29;20485;-69
2022/06/08 08:52:25;;;;;;;5.68;2.83;;;;;;;18.30;85.11;100617.91;4951414;28;20077;-70
2022/06/08 08:55:01;;;;;;;8.75;2.97;;;;;;;18.20;84.45;100621.31;4952314;29;20475;-69
2022/06/08 08:57:56;;;;;;;8.32;2.45;;;;;;;18.14;86.12;100617.75;4952585;29;20035;-70
2022/06/08 09:00:41;;;;;;;5.88;2.53;;;;;;;18.08;85.14;100613.38;4950661;28;20052;-70
2022/06/08 09:03:29;;;;;;;8.18;3.75;;;;;;;18.05;85.61;100616.56;4952354;29;20031;-70
2022/06/08 09:06:12;;;;;;;6.60;3.25;;;;;;;17.98;84.46;100617.81;4952196;29;20073;-70
2022/06/08 09:08:37;;;;;;;8.93;3.40;;;;;;;17.92;85.38;100615.06;4952193;29;20049;-70
2022/06/08 09:11:03;;;;;;;5.75;2.85;;;;;;;17.90;84.49;100617.19;4952288;29;20546;-70
2022/06/08 09:13:43;;;;;;;4.13;2.78;;;;;;;17.89;84.12;100609.34;4952126;29;20115;-71
2022/06/08 09:16:08;;;;;;;7.55;3.00;;;;;;;17.95;85.04;100614.56;4952266;29;20028;-70
2022/06/08 09:18:37;;;;;;;4.82;2.40;;;;;;;18.03;85.30;100618.69;4952075;29;20046;-70
2022/06/08 09:21:21;;;;;;;6.35;2.92;;;;;;;18.11;85.38;100614.75;4952112;29;20043;-70
2022/06/08 09:23:49;;;;;;;4.40;3.13;;;;;;;18.14;84.39;100616.94;4951997;29;20034;-70
2022/06/08 09:26:31;;;;;;;8.98;3.28;;;;;;;18.24;83.72;100619.75;4951827;29;20031;-69
2022/06/08 09:29:02;;;;;;;;;;;;;;;18.34;85.41;100613.66;4952358;29;20159;-69
2022/06/08 09:31:33;;;;;;;10.02;3.28;;;;;;;18.29;84.25;100613.59;4951918;28;19914;-70
2022/06/08 09:34:04;;;;;;;6.22;3.10;;;;;;;18.26;83.83;100608.69;4951761;29;20083;-70
2022/06/08 09:36:30;;;;;;;9.35;3.95;;;;;;;18.16;84.44;100610.22;4933499;29;20024;-69
2022/06/08 09:38:56;;;;;;;7.30;3.25;;;;;;;18.06;84.63;100612.78;4933452;29;20501;-69
2022/06/08 09:41:28;;;;;;;7.95;3.50;;;;;;;17.93;85.09;100618.56;4933316;29;20047;-69
2022/06/08 09:44:22;;;;;;;10.90;3.15;;;;;;;17.77;84.99;100609.44;4935788;29;20023;-68
2022/06/08 09:52:53;;;;;;;7.72;4.32;;;;;;;17.50;84.88;100612.88;4951460;29;20085;-68
2022/06/08 09:55:39;;;;;;;8.98;3.85;;;;;;;17.45;85.21;100618.19;4951421;29;20043;-68
2022/06/08 09:58:33;;;;;;;5.93;3.65;;;;;;;17.45;85.62;100618.19;4934151;29;20050;-69
2022/06/08 10:01:06;;;;;;;5.53;3.45;;;;;;;17.39;86.04;100624.56;4951412;29;20073;-69
2022/06/08 10:04:01;;;;;;;4.85;2.55;;;;;;;17.28;85.95;100631.69;4933859;29;20118;-68
2022/06/08 10:06:26;;;;;;;7.97;2.85;;;;;;;17.20;86.56;100628.59;4945432;29;20126;-68
2022/06/08 10:09:15;;;;;;;6.35;3.15;;;;;;;17.13;87.43;100634.13;4951149;29;20105;-68
2022/06/08 10:11:51;;;;;;;6.32;3.28;;;;;;;17.08;89.35;100621.41;4950957;29;20031;-68
2022/06/08 10:14:16;;;;;;;7.55;3.08;;;;;;;17.03;87.40;100632.13;4951116;29;20035;-68
2022/06/08 10:16:50;;;;;;;17.03;4.07;;;;;;;16.99;88.37;100624.75;4951183;29;20034;-68
2022/06/08 10:19:23;;;;;;;7.88;2.50;;;;;;;16.94;88.48;100630.88;4951174;29;20337;-69
2022/06/08 10:21:49;;;;;;;8.07;3.15;;;;;;;16.83;87.91;100615.59;4951094;29;20042;-68
2022/06/08 10:24:30;;;;;;;5.82;2.53;;;;;;;16.80;88.84;100630.38;4951096;29;20030;-68
2022/06/08 10:27:02;;;;;;;5.38;3.08;;;;;;;16.79;89.83;100636.00;4950894;29;20035;-68
2022/06/08 10:29:34;;;;;;;;;;;;;;;16.79;89.27;100627.91;4951339;29;20034;-68
2022/06/08 10:32:29;;;;;;;7.80;2.40;;;;;;;16.72;88.69;100629.94;4951056;29;19910;-68
2022/06/08 10:34:55;;;;;;;8.70;2.97;;;;;;;16.69;91.28;100625.00;4931038;29;20024;-69
2022/06/08 10:37:27;;;;;;;8.18;2.85;;;;;;;16.65;91.05;100628.19;4932240;29;20514;-68
2022/06/08 10:39:53;;;;;;;11.18;4.30;;;;;;;16.59;90.64;100625.66;4932331;29;20043;-68
2022/06/08 10:42:39;;;;;;;11.15;3.03;;;;;;;16.56;91.95;100632.34;4932336;29;20047;-68
2022/06/08 10:45:22;;;;;;;7.82;3.70;;;;;;;16.54;91.37;100630.97;4932566;29;20032;-69
2022/06/08 10:48:22;;;;;;;9.02;2.60;;;;;;;16.37;92.24;100631.75;4932376;29;20174;-68
2022/06/08 10:51:03;;;;;;;8.20;2.45;;;;;;;16.29;93.12;100634.78;4932244;29;20039;-71
2022/06/08 10:56:23;;;;;;;7.95;2.80;;;;;;;16.21;95.79;100637.88;4951347;29;20127;-68
2022/06/08 10:59:17;;;;;;;8.00;3.17;;;;;;;16.16;96.71;100638.56;4950953;29;20039;-68
2022/06/08 11:02:00;;;;;;;7.80;3.00;;;;;;;16.12;97.04;100639.31;4950928;29;20042;-68
2022/06/08 11:04:35;;;;;;;5.55;2.85;;;;;;;16.07;97.77;100639.22;4950982;29;20047;-68
2022/06/08 11:07:11;;;;;;;5.38;3.50;;;;;;;15.99;98.18;100635.81;4950865;29;20459;-68
2022/06/08 11:09:36;;;;;;;7.53;3.13;;;;;;;15.90;96.72;100631.88;4950869;29;20024;-68
2022/06/08 11:12:27;;;;;;;8.17;3.23;;;;;;;15.87;97.35;100626.97;4950350;29;20039;-68
2022/06/08 11:14:57;;;;;;;11.90;4.03;;;;;;;15.88;98.95;100625.91;4950548;28;20282;-68
2022/06/08 11:17:33;;;;;;;8.68;4.05;;;;;;;15.89;98.87;100615.97;4954311;29;20102;-68
2022/06/08 11:20:20;;;;;;;7.35;4.05;;;;;;;15.95;99.61;100617.69;4954621;29;20031;-68
2022/06/08 11:22:52;;;;;;;11.35;3.97;;;;;;;16.00;98.97;100615.94;4954740;29;20035;-68
2022/06/08 11:25:25;;;;;;;9.50;2.80;;;;;;;16.05;98.83;100609.03;4954543;29;20174;-68
2022/06/08 11:28:28;;;;;;;7.43;3.08;;;;;;;16.10;98.43;100593.00;4954392;29;20023;-68
2022/06/08 11:30:57;;;;;;;7.05;2.58;;;;;;;16.15;98.33;100593.91;4954588;29;20023;-68
2022/06/08 11:33:23;;;;;;;5.07;2.95;;;;;;;16.23;97.40;100599.97;4953926;29;20039;-68
2022/06/08 11:36:20;;;;;;;7.30;3.28;;;;;;;16.29;98.68;100583.66;4954399;29;20034;-68
2022/06/08 11:39:04;;;;;;;7.20;2.78;;;;;;;16.35;98.00;100581.91;4943417;29;20051;-68
2022/06/08 11:41:38;;;;;;;8.45;2.83;;;;;;;16.37;97.57;100583.28;4954130;29;20058;-68
2022/06/08 11:44:14;;;;;;;9.13;3.22;;;;;;;16.42;98.48;100577.97;4954263;29;20023;-68